Time;durP1;ratioP1;P1;durP2;ratioP2;P2;SDS_P1;SDS_P2;PMS_P1;PMS_P2;Temp;Humidity;BMP_temperature;BMP_pressure;BME280_temperature;BME280_humidity;BME280_pressure;Samples;Min_cycle;Max_cycle;Signal;HPM_P1;HPM_P2
2021/04/23 00:01:10;;;;;;;;;17.33;15.00;;;;;8.44;69.01;100038.13;3594047;39;9894;-53
2021/04/23 00:03:49;;;;;;;;;17.67;16.33;;;;;7.85;71.14;100045.25;3589414;40;10530;-53
2021/04/23 00:06:32;;;;;;;;;59.67;40.00;;;;;8.54;67.29;100049.25;3590503;40;10248;-54
2021/04/23 00:09:17;;;;;;;;;81.00;57.00;;;;;7.82;71.54;100044.50;3586987;40;10182;-55
2021/04/23 00:11:47;;;;;;;;;81.50;54.25;;;;;8.42;68.19;100050.69;3587985;40;10699;-53
2021/04/23 00:14:19;;;;;;;;;47.67;33.33;;;;;7.74;70.75;100052.88;3589337;40;9988;-52
2021/04/23 00:16:47;;;;;;;;;30.00;22.00;;;;;7.85;70.59;100055.94;3592842;39;10014;-54
2021/04/23 00:19:21;;;;;;;;;22.33;19.33;;;;;7.90;68.84;100042.38;3592325;39;10326;-51
2021/04/23 00:21:48;;;;;;;;;22.00;19.67;;;;;7.89;69.57;100046.81;3593071;40;9965;-52
2021/04/23 00:24:16;;;;;;;;;19.33;15.67;;;;;8.46;67.82;100051.44;3592701;40;10133;-52
2021/04/23 00:26:43;;;;;;;;;22.00;16.33;;;;;7.63;70.36;100056.00;3589405;40;9882;-52
2021/04/23 00:29:10;;;;;;;;;17.00;16.33;;;;;7.66;69.99;100050.53;3590997;40;9960;-51
2021/04/23 00:31:40;;;;;;;;;20.33;16.33;;;;;7.73;70.22;100052.94;3591351;40;10059;-53
2021/04/23 00:34:07;;;;;;;;;18.67;15.00;;;;;7.89;70.74;100040.63;3593124;40;10482;-51
2021/04/23 00:36:34;;;;;;;;;22.33;18.00;;;;;7.75;70.09;100053.75;3591081;39;9868;-51
2021/04/23 00:39:03;;;;;;;;;22.00;19.00;;;;;7.75;68.42;100051.06;3591557;40;9931;-55
2021/04/23 00:41:34;;;;;;;;;31.00;18.67;;;;;7.81;68.60;100058.81;3588708;40;10059;-54
2021/04/23 00:44:01;;;;;;;;;30.00;21.67;;;;;8.08;67.42;100051.34;3590796;40;10000;-52
2021/04/23 00:46:31;;;;;;;;;17.00;14.33;;;;;7.65;69.30;100053.28;3589086;40;9958;-50
2021/04/23 00:49:00;;;;;;;;;30.00;23.67;;;;;7.44;70.59;100063.94;3596924;39;9915;-53
2021/04/23 00:51:33;;;;;;;;;24.33;18.00;;;;;7.25;73.01;100061.19;3591152;39;10213;-52
2021/04/23 00:54:03;;;;;;;;;23.00;16.33;;;;;7.69;70.02;100066.44;3591391;40;9845;-50
2021/04/23 00:56:35;;;;;;;;;13.00;11.67;;;;;8.10;69.46;100066.38;3587646;39;10305;-51
2021/04/23 00:59:05;;;;;;;;;18.33;14.00;;;;;7.73;69.09;100061.81;3587186;40;9922;-49
2021/04/23 01:01:37;;;;;;;;;18.00;15.00;;;;;7.64;69.55;100065.78;3589036;40;10006;-52
2021/04/23 01:04:09;;;;;;;;;17.00;13.00;;;;;7.51;69.23;100072.56;3590006;40;9909;-51
2021/04/23 01:06:37;;;;;;;;;18.33;17.00;;;;;7.44;69.96;100068.41;3594235;40;9928;-54
2021/04/23 01:09:22;;;;;;;;;23.67;14.33;;;;;7.67;68.83;100070.97;3592017;40;10103;-53
2021/04/23 01:11:52;;;;;;;;;12.67;10.00;;;;;7.73;67.41;100068.97;3590267;40;9862;-53
2021/04/23 01:14:20;;;;;;;;;9.33;9.00;;;;;7.95;66.63;100067.06;3589433;40;9890;-53
2021/04/23 01:16:48;;;;;;;;;12.33;10.00;;;;;8.11;62.36;100072.63;3591463;39;10031;-53
2021/04/23 01:19:20;;;;;;;;;10.00;8.33;;;;;7.99;61.75;100067.81;3589543;39;9847;-49
2021/04/23 01:21:49;;;;;;;;;6.00;6.00;;;;;8.12;63.83;100075.22;3589143;40;9833;-55
2021/04/23 01:24:18;;;;;;;;;10.67;7.00;;;;;7.34;64.34;100061.72;3593466;40;10103;-52
2021/04/23 01:26:50;;;;;;;;;16.00;14.00;;;;;7.38;65.31;100068.69;3591063;40;9939;-52
2021/04/23 01:29:19;;;;;;;;;14.67;13.00;;;;;7.56;64.52;100064.38;3591627;40;10004;-52
2021/04/23 01:31:53;;;;;;;;;19.00;11.00;;;;;7.71;63.41;100071.69;3591543;40;9927;-52
2021/04/23 01:41:45;;;;;;;;;13.00;7.67;;;;;7.70;60.51;100078.84;3592299;40;9765;-52
2021/04/23 01:44:13;;;;;;;;;8.00;7.00;;;;;7.12;63.07;100072.44;3593917;39;9903;-54
2021/04/23 01:46:42;;;;;;;;;8.00;6.67;;;;;6.85;64.48;100064.63;3593127;39;9859;-50
2021/04/23 01:49:16;;;;;;;;;9.67;8.00;;;;;7.12;63.84;100075.97;3592784;39;10032;-52
2021/04/23 01:51:53;;;;;;;;;9.67;8.33;;;;;6.96;62.12;100080.22;3589330;39;9926;-52
2021/04/23 01:54:23;;;;;;;;;12.00;8.67;;;;;6.56;64.27;100076.47;3591875;40;9903;-53
2021/04/23 01:56:51;;;;;;;;;14.00;10.00;;;;;7.06;64.94;100070.00;3593562;40;9951;-51
2021/04/23 01:59:19;;;;;;;;;10.33;9.00;;;;;6.91;66.11;100083.06;3592659;40;10115;-51
2021/04/23 02:01:47;;;;;;;;;20.00;8.33;;;;;6.65;65.85;100081.44;3591001;40;9927;-48
2021/04/23 02:04:17;;;;;;;;;12.67;9.00;;;;;6.52;66.35;100075.69;3590601;40;9913;-51
2021/04/23 02:06:47;;;;;;;;;9.00;8.00;;;;;6.81;64.20;100085.22;3588821;40;10020;-50
2021/04/23 02:09:16;;;;;;;;;13.67;9.67;;;;;6.71;65.08;100074.97;3592608;40;9970;-53
2021/04/23 02:11:45;;;;;;;;;11.33;7.33;;;;;7.21;63.12;100085.41;3596611;39;10043;-50
2021/04/23 02:14:46;;;;;;;;;16.00;13.00;;;;;6.88;63.19;100085.84;3591784;40;10100;-51
2021/04/23 02:17:14;;;;;;;;;13.00;10.00;;;;;6.91;64.25;100087.53;3590915;40;10503;-54
2021/04/23 02:19:41;;;;;;;;;12.33;9.67;;;;;6.84;63.45;100089.56;3588536;40;9950;-51
2021/04/23 02:22:07;;;;;;;;;8.67;8.67;;;;;6.69;64.42;100085.72;3593095;40;10157;-52
2021/04/23 02:24:35;;;;;;;;;14.67;12.00;;;;;6.67;66.34;100090.25;3592619;39;10079;-52
2021/04/23 02:27:02;;;;;;;;;16.33;10.00;;;;;6.64;65.90;100093.03;3591746;40;9979;-50
2021/04/23 02:29:29;;;;;;;;;11.00;10.67;;;;;6.40;66.21;100091.28;3591672;40;10662;-52
2021/04/23 02:31:56;;;;;;;;;8.67;6.67;;;;;6.72;64.19;100098.94;3595043;40;9886;-51
2021/04/23 02:34:28;;;;;;;;;10.00;10.00;;;;;6.26;66.63;100097.16;3594248;40;10504;-52
2021/04/23 02:36:55;;;;;;;;;13.00;9.00;;;;;6.20;68.04;100106.25;3589312;40;10015;-54
2021/04/23 02:39:22;;;;;;;;;9.00;8.67;;;;;6.03;66.93;100108.66;3597113;39;10147;-51
2021/04/23 02:41:53;;;;;;;;;12.33;10.00;;;;;5.92;69.57;100106.34;3587499;40;9987;-53
2021/04/23 02:44:21;;;;;;;;;12.33;9.00;;;;;5.63;68.99;100105.56;3591817;40;9925;-52
2021/04/23 02:46:48;;;;;;;;;18.67;13.00;;;;;5.58;70.78;100104.88;3589319;40;9955;-54
2021/04/23 02:49:16;;;;;;;;;11.33;11.33;;;;;5.89;69.46;100096.66;3592348;39;10035;-50
2021/04/23 02:51:47;;;;;;;;;14.67;12.00;;;;;6.20;67.19;100100.91;3590142;40;9996;-53
2021/04/23 02:54:18;;;;;;;;;22.00;11.33;;;;;5.86;68.74;100096.78;3591385;40;10262;-53
2021/04/23 02:56:45;;;;;;;;;15.67;10.33;;;;;6.29;68.73;100089.94;3590611;40;10123;-51
2021/04/23 02:59:12;;;;;;;;;14.00;9.00;;;;;5.97;68.47;100090.22;3594051;39;10055;-51
2021/04/23 03:01:57;;;;;;;;;16.33;12.00;;;;;5.82;69.08;100091.59;3596130;39;10084;-53
2021/04/23 03:04:27;;;;;;;;;12.67;12.33;;;;;5.89;68.68;100094.00;3606823;39;10056;-51
2021/04/23 03:06:55;;;;;;;;;16.00;9.00;;;;;5.97;69.39;100100.88;3595799;39;9992;-53
2021/04/23 03:09:22;;;;;;;;;20.00;17.00;;;;;5.62;69.06;100098.50;3596044;39;10037;-51
2021/04/23 03:11:49;;;;;;;;;127.25;119.75;;;;;5.86;68.74;100101.25;3595857;39;10119;-51
2021/04/23 03:14:16;;;;;;;;;26.67;24.00;;;;;5.34;71.07;100103.03;3596664;39;10082;-51
2021/04/23 03:16:44;;;;;;;;;29.00;26.00;;;;;5.47;69.82;100105.22;3595572;39;10174;-53
2021/04/23 03:19:17;;;;;;;;;22.00;15.00;;;;;5.73;69.47;100100.78;3596986;39;10035;-53
2021/04/23 03:21:45;;;;;;;;;13.67;13.00;;;;;5.85;68.41;100100.38;3596974;39;10107;-52
2021/04/23 03:24:13;;;;;;;;;20.67;13.00;;;;;5.80;68.26;100102.34;3596348;39;10273;-51
2021/04/23 03:26:42;;;;;;;;;16.00;11.67;;;;;5.52;69.53;100102.41;3594928;39;10193;-52
2021/04/23 03:29:10;;;;;;;;;18.33;12.00;;;;;5.33;69.42;100107.50;3597434;39;9955;-52
2021/04/23 03:31:38;;;;;;;;;12.00;9.00;;;;;5.68;68.10;100108.06;3604636;39;10115;-50
2021/04/23 03:34:05;;;;;;;;;17.00;15.00;;;;;5.57;69.03;100112.91;3596937;39;9947;-51
2021/04/23 03:36:33;;;;;;;;;16.00;11.33;;;;;5.75;67.81;100109.63;3596466;39;10036;-52
2021/04/23 03:39:01;;;;;;;;;16.00;13.00;;;;;5.30;69.95;100112.91;3597140;39;10070;-50
2021/04/23 03:41:32;;;;;;;;;16.00;11.67;;;;;5.54;69.96;100121.00;3595068;39;10048;-52
2021/04/23 03:44:00;;;;;;;;;17.00;13.00;;;;;5.40;68.99;100129.47;3589054;39;10648;-56
2021/04/23 03:46:28;;;;;;;;;12.67;8.67;;;;;4.97;70.37;100131.69;3585651;40;10075;-57
2021/04/23 03:48:56;;;;;;;;;17.00;11.00;;;;;5.07;68.89;100132.28;3589393;39;10122;-55
2021/04/23 03:51:23;;;;;;;;;12.00;9.67;;;;;4.83;71.23;100140.13;3605208;39;10702;-56
2021/04/23 03:53:52;;;;;;;;;12.33;12.00;;;;;4.80;71.85;100142.03;3606847;39;10072;-57
2021/04/23 03:56:20;;;;;;;;;17.33;14.00;;;;;4.87;72.91;100150.66;3606775;39;10075;-57
2021/04/23 03:58:49;;;;;;;;;14.67;11.00;;;;;5.18;71.59;100146.13;3605785;39;10525;-56
2021/04/23 04:01:21;;;;;;;;;15.00;13.33;;;;;5.42;69.95;100135.59;3606311;39;10850;-55
2021/04/23 04:03:51;;;;;;;;;17.33;13.67;;;;;5.18;70.92;100146.13;3605733;39;10392;-54
2021/04/23 04:06:23;;;;;;;;;31.33;15.67;;;;;5.25;70.59;100141.47;3606729;39;10334;-57
2021/04/23 04:08:49;;;;;;;;;21.67;15.67;;;;;5.51;69.24;100148.63;3606359;39;10232;-57
2021/04/23 04:11:17;;;;;;;;;19.00;15.00;;;;;5.80;67.67;100160.94;3606464;39;10018;-57
2021/04/23 04:13:44;;;;;;;;;15.00;12.00;;;;;5.65;68.66;100162.31;3606742;39;10057;-56
2021/04/23 04:16:11;;;;;;;;;19.33;13.00;;;;;5.49;68.54;100161.09;3606666;39;10574;-57
2021/04/23 04:18:38;;;;;;;;;14.33;12.33;;;;;5.65;68.21;100161.47;3606357;39;10106;-57
2021/04/23 04:21:05;;;;;;;;;18.33;13.00;;;;;5.35;69.73;100177.53;3606614;39;9999;-56
2021/04/23 04:23:33;;;;;;;;;15.67;15.33;;;;;5.62;68.01;100167.75;3606683;39;10123;-55
2021/04/23 04:26:02;;;;;;;;;19.00;13.00;;;;;5.71;68.58;100172.81;3606484;39;10197;-57
2021/04/23 04:28:31;;;;;;;;;17.33;12.33;;;;;6.34;66.61;100162.59;3606617;39;10140;-56
2021/04/23 04:30:59;;;;;;;;;17.00;14.00;;;;;6.06;67.12;100175.19;3606347;39;10119;-56
2021/04/23 04:33:45;;;;;;;;;12.00;10.67;;;;;5.93;67.38;100183.63;3605976;39;10260;-57
2021/04/23 04:36:12;;;;;;;;;15.00;14.33;;;;;6.13;66.38;100179.38;3606467;39;9986;-57
2021/04/23 04:38:40;;;;;;;;;18.67;12.67;;;;;6.27;65.36;100182.44;3605878;39;9948;-57
2021/04/23 04:41:07;;;;;;;;;13.00;13.00;;;;;8.69;59.09;100200.22;3613276;39;10042;-57
2021/04/23 04:43:35;;;;;;;;;14.67;12.33;;;;;10.25;52.70;100197.97;3606480;39;10105;-58
2021/04/23 04:46:02;;;;;;;;;12.67;10.67;;;;;11.31;50.47;100196.78;3606481;39;9794;-57
2021/04/23 04:48:29;;;;;;;;;21.67;15.67;;;;;9.84;53.01;100195.59;3606157;39;10599;-57
2021/04/23 04:50:59;;;;;;;;;20.00;15.33;;;;;9.77;53.61;100196.84;3585947;40;10778;-58
2021/04/23 04:53:27;;;;;;;;;22.33;16.67;;;;;9.04;56.03;100203.09;3585138;40;10315;-57
2021/04/23 04:55:57;;;;;;;;;16.33;14.33;;;;;9.11;56.80;100204.53;3585921;40;10301;-58
2021/04/23 04:58:30;;;;;;;;;18.67;16.00;;;;;8.87;56.81;100215.44;3586198;40;10087;-58
2021/04/23 05:00:59;;;;;;;;;18.67;16.33;;;;;9.05;56.94;100218.22;3586075;40;10104;-59
2021/04/23 05:03:26;;;;;;;;;20.00;14.00;;;;;8.11;59.63;100212.56;3588159;40;10179;-57
2021/04/23 05:05:54;;;;;;;;;24.67;15.00;;;;;7.52;61.53;100215.06;3587366;40;10034;-58
2021/04/23 05:08:21;;;;;;;;;17.00;16.00;;;;;7.88;61.28;100213.53;3586711;40;10291;-58
2021/04/23 05:10:48;;;;;;;;;19.00;15.00;;;;;8.09;60.84;100219.78;3587168;40;10454;-57
2021/04/23 05:13:15;;;;;;;;;19.33;16.00;;;;;8.33;60.21;100225.00;3587335;40;9804;-56
2021/04/23 05:15:42;;;;;;;;;17.33;15.67;;;;;9.09;57.46;100228.72;3586888;40;9888;-57
2021/04/23 05:18:10;;;;;;;;;21.33;17.00;;;;;8.98;58.19;100234.59;3587636;40;10322;-57
2021/04/23 05:20:37;;;;;;;;;19.33;16.00;;;;;9.94;54.97;100238.06;3587642;40;9847;-58
2021/04/23 05:23:05;;;;;;;;;21.33;18.33;;;;;8.48;57.67;100242.22;3587409;40;10245;-58
2021/04/23 05:25:33;;;;;;;;;20.00;15.00;;;;;8.10;60.07;100239.34;3587381;40;10015;-58
2021/04/23 05:27:59;;;;;;;;;23.67;16.67;;;;;8.32;58.71;100241.97;3587457;40;9836;-58
2021/04/23 05:30:31;;;;;;;;;18.00;15.00;;;;;8.08;60.34;100243.91;3587118;40;9877;-57
2021/04/23 05:33:01;;;;;;;;;15.67;14.67;;;;;7.79;61.12;100245.13;3587841;40;10107;-57
2021/04/23 05:35:29;;;;;;;;;22.67;19.33;;;;;10.12;54.65;100253.22;3594652;40;9967;-57
2021/04/23 05:37:58;;;;;;;;;24.00;18.67;;;;;10.18;54.33;100252.91;3585990;40;10414;-57
2021/04/23 05:40:34;;;;;;;;;21.00;17.00;;;;;9.54;54.90;100254.28;3586955;40;10361;-57
2021/04/23 05:43:02;;;;;;;;;20.67;17.00;;;;;11.99;49.09;100247.59;3587248;40;10344;-57
2021/04/23 05:45:29;;;;;;;;;18.25;15.00;;;;;11.31;51.30;100247.84;3586862;40;10593;-57
2021/04/23 05:47:56;;;;;;;;;14.75;13.75;;;;;11.15;49.81;100255.91;3586836;40;14066;-57
2021/04/23 05:50:25;;;;;;;;;18.75;17.00;;;;;12.08;48.64;100252.44;3602486;39;13988;-57
2021/04/23 05:52:53;;;;;;;;;17.00;14.25;;;;;11.17;51.70;100262.91;3607386;39;14141;-58
2021/04/23 05:55:26;;;;;;;;;15.00;12.50;;;;;11.34;49.88;100261.97;3607320;39;14018;-58
2021/04/23 05:57:58;;;;;;;;;17.75;15.50;;;;;10.81;50.49;100270.28;3607335;39;13981;-56
2021/04/23 06:00:28;;;;;;;;;14.75;12.75;;;;;10.19;51.84;100264.50;3607118;39;14211;-58
2021/04/23 06:02:58;;;;;;;;;14.00;14.00;;;;;10.58;50.84;100266.97;3606430;39;14217;-57
2021/04/23 06:05:28;;;;;;;;;12.25;10.25;;;;;11.29;50.16;100265.88;3597864;39;14021;-57
2021/04/23 06:08:02;;;;;;;;;13.50;11.00;;;;;11.49;48.25;100265.66;3607766;39;14013;-58
2021/04/23 06:10:30;;;;;;;;;14.00;11.00;;;;;11.86;47.06;100271.66;3596565;39;14040;-58
2021/04/23 06:12:58;;;;;;;;;10.75;9.00;;;;;10.74;48.01;100273.31;3596515;39;14013;-57
2021/04/23 06:15:26;;;;;;;;;13.50;8.00;;;;;10.82;47.37;100274.69;3596601;39;14011;-58
2021/04/23 06:17:55;;;;;;;;;14.50;8.50;;;;;10.57;47.66;100280.50;3596890;39;14200;-58
2021/04/23 06:20:29;;;;;;;;;16.75;12.50;;;;;10.04;51.00;100293.84;3596790;39;14076;-57
2021/04/23 06:22:58;;;;;;;;;17.00;13.00;;;;;9.91;52.28;100292.72;3596572;39;14014;-56
2021/04/23 06:25:25;;;;;;;;;12.25;12.00;;;;;10.32;50.04;100293.38;3596578;39;14031;-56
2021/04/23 06:27:52;;;;;;;;;14.75;12.50;;;;;10.06;51.38;100304.53;3596636;39;10573;-57
2021/04/23 06:30:25;;;;;;;;;15.75;13.00;;;;;9.83;51.52;100303.81;3596658;39;13999;-57
2021/04/23 06:32:52;;;;;;;;;11.25;11.25;;;;;12.52;46.08;100306.34;3596636;39;14317;-57
2021/04/23 06:35:24;;;;;;;;;15.25;12.00;;;;;14.25;43.03;100308.03;3596360;40;13999;-58
2021/04/23 06:37:52;;;;;;;;;12.00;9.00;;;;;17.94;34.33;100313.22;3596533;39;14019;-58
2021/04/23 06:40:19;;;;;;;;;9.75;8.50;;;;;20.19;29.69;100317.25;3596450;39;14079;-58
2021/04/23 06:42:46;;;;;;;;;8.75;8.00;;;;;19.14;30.21;100320.28;3596557;39;14012;-58
2021/04/23 06:45:20;;;;;;;;;7.50;6.50;;;;;18.84;31.09;100326.50;3596535;39;13943;-58
2021/04/23 06:47:48;;;;;;;;;6.50;4.75;;;;;19.03;27.69;100328.50;3596657;39;13082;-58
2021/04/23 06:50:20;;;;;;;;;5.00;5.00;;;;;18.22;28.49;100322.66;3603868;39;12427;-58
2021/04/23 06:52:48;;;;;;;;;6.00;4.00;;;;;16.85;29.44;100332.72;3607270;39;12610;-57
2021/04/23 06:55:17;;;;;;;;;5.25;5.00;;;;;18.10;27.21;100337.25;3606674;39;12543;-57
2021/04/23 06:57:45;;;;;;;;;6.25;4.75;;;;;17.44;28.96;100331.72;3606693;39;12534;-58
2021/04/23 07:00:24;;;;;;;;;6.00;5.00;;;;;19.47;26.62;100338.22;3605692;39;12614;-57
2021/04/23 07:02:52;;;;;;;;;7.00;6.75;;;;;18.04;28.87;100344.06;3606492;39;12977;-58
2021/04/23 07:05:20;;;;;;;;;8.00;5.00;;;;;19.06;27.50;100340.00;3605902;39;12270;-57
2021/04/23 07:07:47;;;;;;;;;6.00;6.00;;;;;17.47;28.23;100334.19;3605581;39;12180;-58
2021/04/23 07:10:19;;;;;;;;;7.00;5.75;;;;;18.01;28.86;100338.91;3605582;39;12154;-57
2021/04/23 07:12:47;;;;;;;;;7.75;6.00;;;;;17.07;28.93;100340.06;3606974;39;12029;-57
2021/04/23 07:15:19;;;;;;;;;8.00;5.50;;;;;17.57;29.26;100347.91;3606585;39;11967;-57
2021/04/23 07:17:47;;;;;;;;;6.00;6.00;;;;;19.46;27.58;100341.09;3607053;39;12467;-58
2021/04/23 07:20:34;;;;;;;;;6.75;4.25;;;;;20.01;26.84;100351.66;3606532;39;12074;-58
2021/04/23 07:23:02;;;;;;;;;8.50;5.50;;;;;19.62;27.75;100346.06;3606798;39;11893;-58
2021/04/23 07:25:31;;;;;;;;;8.00;7.25;;;;;19.16;27.88;100352.81;3605568;39;11552;-57
2021/04/23 07:27:59;;;;;;;;;6.75;6.00;;;;;18.95;27.89;100353.66;3614033;39;11884;-58
2021/04/23 07:30:31;;;;;;;;;6.00;5.50;;;;;16.71;31.95;100344.59;3606949;39;11825;-58
2021/04/23 07:32:59;;;;;;;;;8.00;7.00;;;;;16.35;31.83;100346.44;3605682;39;12714;-57
2021/04/23 07:35:27;;;;;;;;;6.50;6.25;;;;;13.18;38.97;100349.97;3607011;39;14091;-58
2021/04/23 07:37:57;;;;;;;;;8.50;5.25;;;;;12.47;38.06;100351.53;3606547;39;13984;-58
2021/04/23 07:40:24;;;;;;;;;9.50;6.50;;;;;12.47;39.06;100351.53;3606847;39;14676;-58
2021/04/23 07:42:51;;;;;;;;;10.50;7.50;;;;;12.73;38.37;100341.03;3614247;39;14107;-58
2021/04/23 07:45:19;;;;;;;;;12.50;7.75;;;;;12.52;39.15;100338.66;3606387;39;14129;-57
2021/04/23 07:47:47;;;;;;;;;8.00;6.00;;;;;13.12;40.34;100355.75;3606126;39;13980;-58
2021/04/23 07:50:18;;;;;;;;;8.00;7.00;;;;;12.78;39.30;100344.34;3599315;39;14018;-58
2021/04/23 07:52:46;;;;;;;;;10.50;9.00;;;;;13.23;40.85;100349.72;3596463;39;13989;-59
2021/04/23 07:55:16;;;;;;;;;8.00;7.00;;;;;13.24;39.87;100356.81;3595644;40;14025;-58
2021/04/23 07:57:45;;;;;;;;;9.00;7.50;;;;;12.51;39.45;100346.84;3596032;39;14117;-59
2021/04/23 08:00:15;;;;;;;;;9.00;8.50;;;;;12.96;40.06;100351.31;3595762;39;14528;-58
2021/04/23 08:02:42;;;;;;;;;10.25;7.00;;;;;12.92;40.05;100349.75;3596131;39;14498;-57
2021/04/23 08:05:13;;;;;;;;;8.25;7.25;;;;;13.04;38.80;100349.97;3596417;39;14638;-58
2021/04/23 08:08:01;;;;;;;;;13.25;5.00;;;;;13.13;37.66;100354.78;3596058;40;14010;-57
2021/04/23 08:10:30;;;;;;;;;10.25;5.25;;;;;13.13;38.36;100349.41;3596012;39;14168;-57
2021/04/23 08:12:58;;;;;;;;;9.00;6.25;;;;;13.00;37.48;100359.19;3596231;39;13979;-57
2021/04/23 08:15:27;;;;;;;;;6.25;5.00;;;;;13.30;37.00;100367.28;3596415;39;13970;-58
2021/04/23 08:17:57;;;;;;;;;6.50;4.75;;;;;13.30;37.53;100367.28;3596289;39;14032;-57
2021/04/23 08:20:25;;;;;;;;;8.50;8.00;;;;;13.12;37.42;100366.53;3595489;40;14005;-58
2021/04/23 08:22:52;;;;;;;;;6.75;6.25;;;;;13.54;37.83;100365.75;3595964;39;14201;-57
2021/04/23 08:25:21;;;;;;;;;9.25;7.50;;;;;13.54;37.12;100370.28;3596359;39;13946;-58
2021/04/23 08:27:49;;;;;;;;;11.00;8.75;;;;;13.82;37.85;100375.66;3596132;39;14161;-58
2021/04/23 08:30:19;;;;;;;;;9.25;6.00;;;;;13.91;37.53;100374.19;3594397;40;15125;-58
2021/04/23 08:32:46;;;;;;;;;8.50;7.00;;;;;13.76;37.06;100381.44;3596178;39;14002;-57
2021/04/23 08:35:14;;;;;;;;;8.25;6.25;;;;;13.32;37.32;100377.00;3596258;39;14207;-58
2021/04/23 08:37:42;;;;;;;;;10.50;6.00;;;;;13.95;37.85;100383.81;3596996;39;14020;-57
2021/04/23 08:40:13;;;;;;;;;8.00;6.00;;;;;13.89;36.60;100375.25;3597376;39;13986;-58
2021/04/23 08:42:41;;;;;;;;;9.00;7.00;;;;;14.50;36.05;100372.06;3597236;39;14716;-58
2021/04/23 08:45:13;;;;;;;;;5.75;5.00;;;;;14.02;36.56;100376.19;3597550;39;13992;-58
2021/04/23 08:47:41;;;;;;;;;10.25;6.75;;;;;13.62;36.00;100367.97;3597530;39;14027;-58
2021/04/23 08:50:19;;;;;;;;;13.50;8.00;;;;;14.15;36.32;100366.31;3604625;39;13993;-58
2021/04/23 08:52:49;;;;;;;;;8.75;5.00;;;;;14.10;37.03;100387.34;3607244;39;13999;-57
2021/04/23 08:55:20;;;;;;;;;6.50;6.00;;;;;14.24;35.75;100375.66;3607680;39;13954;-56
2021/04/23 08:58:07;;;;;;;;;9.00;7.50;;;;;13.59;36.62;100379.81;3607315;39;14058;-57
2021/04/23 09:00:34;;;;;;;;;7.75;5.75;;;;;14.37;37.38;100368.47;3606492;39;14013;-58
2021/04/23 09:03:02;;;;;;;;;5.25;5.00;;;;;13.86;36.28;100372.75;3607746;39;14658;-58
2021/04/23 09:05:30;;;;;;;;;6.00;6.00;;;;;13.90;35.77;100363.47;3606976;39;13948;-58
2021/04/23 09:08:03;;;;;;;;;4.00;4.00;;;;;13.77;36.11;100366.09;3607151;39;14584;-58
2021/04/23 09:10:34;;;;;;;;;9.00;6.25;;;;;13.66;36.13;100372.19;3607739;39;14000;-58
2021/04/23 09:13:16;;;;;;;;;11.00;8.75;;;;;13.49;35.84;100372.41;3607409;39;13950;-58
2021/04/23 09:15:46;;;;;;;;;12.75;9.75;;;;;14.14;36.27;100370.00;3607680;39;14161;-60
2021/04/23 09:18:16;;;;;;;;;25.00;10.00;;;;;13.76;36.10;100376.03;3607351;39;13987;-57
2021/04/23 09:20:49;;;;;;;;;13.75;8.00;;;;;14.15;36.25;100369.03;3607830;39;14234;-57
2021/04/23 09:23:20;;;;;;;;;9.00;9.00;;;;;13.28;37.08;100372.75;3606210;39;14006;-57
2021/04/23 09:25:51;;;;;;;;;10.75;8.00;;;;;14.17;36.39;100360.84;3606922;39;14072;-57
2021/04/23 09:28:43;;;;;;;;;20.00;9.75;;;;;14.21;37.40;100354.25;3607099;39;13994;-57
2021/04/23 09:31:33;;;;;;;;;10.25;8.25;;;;;14.46;35.98;100348.09;3607744;39;13982;-58
2021/04/23 09:34:07;;;;;;;;;6.00;5.75;;;;;14.08;36.91;100342.53;3607167;39;13967;-59
2021/04/23 09:36:43;;;;;;;;;23.75;16.75;;;;;14.20;37.30;100342.59;3607089;39;13956;-58
2021/04/23 09:39:14;;;;;;;;;8.50;5.75;;;;;13.92;37.19;100332.72;3607684;39;14222;-57
2021/04/23 09:41:46;;;;;;;;;9.50;8.25;;;;;13.58;35.72;100332.19;3607612;39;13975;-57
2021/04/23 09:44:51;;;;;;;;;29.25;18.00;;;;;13.87;37.65;100350.19;3606656;39;13963;-57
2021/04/23 09:47:23;;;;;;;;;16.00;9.25;;;;;14.14;36.97;100343.00;3607390;39;14711;-58
2021/04/23 09:49:51;;;;;;;;;8.50;6.00;;;;;14.06;36.31;100345.34;3601908;39;13982;-57
2021/04/23 09:52:19;;;;;;;;;12.50;10.75;;;;;13.84;36.06;100341.31;3597510;40;14000;-58
2021/04/23 09:55:04;;;;;;;;;18.00;8.75;;;;;14.02;34.91;100349.19;3596910;39;14094;-58
2021/04/23 09:57:40;;;;;;;;;8.25;8.25;;;;;14.01;35.81;100340.22;3597301;39;14004;-56
2021/04/23 10:00:11;;;;;;;;;14.00;7.50;;;;;14.54;34.98;100350.31;3597091;39;13976;-58
2021/04/23 10:02:38;;;;;;;;;9.75;7.75;;;;;14.75;35.80;100342.59;3596351;39;14010;-57
2021/04/23 10:05:07;;;;;;;;;11.00;8.75;;;;;14.35;33.90;100339.81;3596689;39;14986;-58
2021/04/23 10:07:36;;;;;;;;;10.75;7.00;;;;;14.20;33.40;100341.72;3604022;39;13989;-58
2021/04/23 10:10:12;;;;;;;;;11.50;6.00;;;;;14.89;34.25;100345.19;3596543;39;14024;-58
2021/04/23 10:12:53;;;;;;;;;11.50;5.50;;;;;14.28;33.19;100351.03;3596843;39;14000;-57
2021/04/23 10:15:27;;;;;;;;;6.50;4.25;;;;;14.81;32.61;100337.59;3594303;39;13964;-58
2021/04/23 10:18:00;;;;;;;;;12.00;6.25;;;;;14.44;33.06;100348.19;3596839;39;14000;-56
2021/04/23 10:20:31;;;;;;;;;7.75;6.75;;;;;14.62;34.18;100338.00;3595544;40;14011;-59
2021/04/23 10:23:03;;;;;;;;;6.25;5.50;;;;;14.33;33.74;100342.63;3593972;40;14013;-55
2021/04/23 10:25:30;;;;;;;;;6.25;6.25;;;;;15.07;35.54;100340.34;3587223;40;14055;-59
2021/04/23 10:28:00;;;;;;;;;4.50;4.00;;;;;14.93;34.36;100341.31;3586358;40;14024;-56
2021/04/23 10:30:31;;;;;;;;;6.50;5.00;;;;;15.08;34.03;100353.75;3586923;40;14004;-59
2021/04/23 10:33:12;;;;;;;;;10.00;6.75;;;;;14.74;33.88;100340.84;3601848;39;14011;-58
2021/04/23 10:35:42;;;;;;;;;3.25;2.00;;;;;15.45;33.09;100334.91;3596333;40;13942;-59
2021/04/23 10:38:13;;;;;;;;;4.25;4.00;;;;;15.80;34.20;100343.25;3596982;39;13965;-59
2021/04/23 10:40:43;;;;;;;;;10.00;6.00;;;;;14.73;35.89;100337.28;3595619;39;13986;-57
2021/04/23 10:43:13;;;;;;;;;4.00;4.00;;;;;14.08;35.22;100332.56;3595148;39;14133;-57
2021/04/23 10:46:04;;;;;;;;;4.00;4.00;;;;;13.96;35.55;100338.81;3596852;39;13993;-57
2021/04/23 10:48:41;;;;;;;;;21.75;14.00;;;;;13.53;34.79;100345.13;3592651;39;13972;-58
2021/04/23 10:51:20;;;;;;;;;8.00;4.00;;;;;13.86;35.04;100348.47;3597494;39;14115;-58
2021/04/23 10:53:51;;;;;;;;;6.25;4.75;;;;;15.62;34.50;100335.56;3590133;40;13970;-57
2021/04/23 10:56:27;;;;;;;;;6.00;4.75;;;;;15.32;31.99;100326.84;3588911;39;14019;-58
2021/04/23 10:58:59;;;;;;;;;2.25;2.25;;;;;14.41;32.73;100331.31;3587396;40;14048;-57
2021/04/23 11:01:31;;;;;;;;;4.50;2.75;;;;;14.86;31.26;100329.19;3585947;40;14003;-56
2021/04/23 11:04:12;;;;;;;;;4.50;4.50;;;;;15.46;31.72;100328.56;3586394;40;14179;-58
2021/04/23 11:06:55;;;;;;;;;6.25;3.25;;;;;14.42;32.79;100319.53;3586633;40;13982;-57
2021/04/23 11:09:24;;;;;;;;;4.50;3.75;;;;;15.22;32.23;100325.75;3585351;40;14052;-57
2021/04/23 11:12:13;;;;;;;;;4.00;4.00;;;;;14.96;31.36;100324.88;3586577;40;13989;-56
2021/04/23 11:14:43;;;;;;;;;3.00;3.00;;;;;15.31;30.73;100322.38;3585311;40;14507;-57
2021/04/23 11:17:19;;;;;;;;;7.25;6.00;;;;;14.91;31.90;100314.38;3586499;40;14445;-57
2021/04/23 11:19:49;;;;;;;;;6.00;4.25;;;;;14.14;33.06;100332.19;3588589;40;14267;-58
2021/04/23 11:22:22;;;;;;;;;4.50;4.50;;;;;15.10;32.84;100330.16;3586568;40;14006;-57
2021/04/23 11:25:17;;;;;;;;;6.00;6.00;;;;;14.87;33.32;100337.19;3586819;40;13966;-57
2021/04/23 11:28:02;;;;;;;;;6.25;6.25;;;;;15.10;33.62;100319.34;3586985;40;14003;-58
2021/04/23 11:31:00;;;;;;;;;20.00;12.75;;;;;14.66;31.82;100328.69;3587463;40;14730;-58
2021/04/23 11:34:30;;;;;;;;;14.75;8.50;;;;;15.15;33.01;100330.72;3593715;40;14057;-57
2021/04/23 11:37:02;;;;;;;;;7.50;6.00;;;;;15.41;31.94;100325.31;3573895;40;14005;-58
2021/04/23 11:39:31;;;;;;;;;8.25;7.00;;;;;15.11;31.95;100331.03;3574088;40;14078;-58
2021/04/23 11:42:14;;;;;;;;;10.00;6.00;;;;;15.31;33.10;100321.53;3582190;40;14049;-58
2021/04/23 11:44:51;;;;;;;;;12.75;7.00;;;;;15.12;31.49;100325.53;3588268;40;14119;-57
2021/04/23 11:47:42;;;;;;;;;10.00;6.75;;;;;15.55;32.43;100322.47;3592202;40;14000;-58